MAPA DE AEROPUERTO

INFORMACIÓN METAR y TAF

METAR FOR EDDF
ADDS - METARS form results

(0426 UTC 20 September 2021)
Data provider http://aviationweather.gov/metar/data/
 
METAR text: EDDF 200420Z 01007KT 9999 BKN026 12/08 Q1018 NOSIG
Conditions at: EDDF (FRANKFURT MAIN A, DE) observed 0420 UTC 20 September 2021
Temperature: 12.0°C (54°F)
Dewpoint: 8.0°C (46°F) [RH = 76%]
Pressure (altimeter): 30.06 inches Hg (1018.0 mb)
Winds: from the N (10 degrees) at 8 MPH (7 knots; 3.6 m/s)
Visibility: 6 or more miles (10+ km)
Ceiling: 2600 feet AGL
Clouds: broken clouds at 2600 feet AGL
Weather: no significant weather observed at this time

METAR text: EDDF 200350Z 01006KT 9999 BKN025 12/08 Q1018 NOSIG
Conditions at: EDDF (FRANKFURT MAIN A, DE) observed 0350 UTC 20 September 2021
Temperature: 12.0°C (54°F)
Dewpoint: 8.0°C (46°F) [RH = 76%]
Pressure (altimeter): 30.06 inches Hg (1018.0 mb)
Winds: from the N (10 degrees) at 7 MPH (6 knots; 3.1 m/s)
Visibility: 6 or more miles (10+ km)
Ceiling: 2500 feet AGL
Clouds: broken clouds at 2500 feet AGL
Weather: no significant weather observed at this time

Forecast for: EDDF (FRANKFURT MAIN A, DE)
Text: TAF EDDF 192300Z 2000/2106 04007KT 9999 BKN035
Forecast period: 0000 to 0600 UTC 20 September 2021
Forecast type: FROM: standard forecast or significant change
Winds: from the NE (40 degrees) at 8 MPH (7 knots; 3.6 m/s)
Visibility: 6 or more miles (10+ km)
Ceiling: 3500 feet AGL
Clouds: broken clouds at 3500 feet AGL
Weather: no significant weather forecast for this period
Text: BECMG 2006/2009 SCT040
Forecast period: 0600 UTC 20 September 2021 to 0600 UTC 21 September 2021
Forecast type: BECOMING: Conditions expected to become as follows by 0900 UTC 20 September 2021
Winds: from the NE (40 degrees) at 8 MPH (7 knots; 3.6 m/s)
Visibility: 6 or more miles (10+ km)
Ceiling: at least 12,000 feet AGL
Clouds: scattered clouds at 4000 feet AGL
Weather: no significant weather forecast for this period